Time;durP1;ratioP1;P1;durP2;ratioP2;P2;SDS_P1;SDS_P2;PMS_P1;PMS_P2;Temp;Humidity;BMP_temperature;BMP_pressure;BME280_temperature;BME280_humidity;BME280_pressure;Samples;Min_cycle;Max_cycle;Signal;HPM_P1;HPM_P2
2023/07/28 00:01:21;;;;;;;17.70;6.40;;;;;;;;;;6060801;23;20027;-52
2023/07/28 00:03:48;;;;;;;15.57;6.47;;;;;;;;;;6060124;23;20034;-52
2023/07/28 00:06:22;;;;;;;13.00;7.25;;;;;;;;;;6059534;23;20480;-52
2023/07/28 00:08:58;;;;;;;11.57;6.20;;;;;;;;;;6060290;23;20491;-49
2023/07/28 00:11:45;;;;;;;16.67;6.60;;;;;;;;;;6059825;23;20035;-52
2023/07/28 00:14:19;;;;;;;15.88;6.88;;;;;;;;;;6060470;23;20086;-52
2023/07/28 00:16:53;;;;;;;16.75;6.72;;;;;;;;;;6059882;23;20437;-57
2023/07/28 00:19:21;;;;;;;;;;;;;;;;;;6060242;23;20073;-59
2023/07/28 00:21:48;;;;;;;22.77;7.57;;;;;;;;;;6059880;23;19972;-59
2023/07/28 00:24:22;;;;;;;15.40;8.00;;;;;;;;;;6061009;23;20330;-59
2023/07/28 00:26:49;;;;;;;14.00;7.07;;;;;;;;;;6060647;23;20027;-58
2023/07/28 00:29:23;;;;;;;18.73;7.60;;;;;;;;;;6060204;23;20360;-66
2023/07/28 00:31:50;;;;;;;15.80;6.80;;;;;;;;;;6059769;23;20462;-66
2023/07/28 00:34:18;;;;;;;12.02;7.07;;;;;;;;;;6059927;23;20548;-66
2023/07/28 00:36:52;;;;;;;16.80;6.60;;;;;;;;;;6059766;23;20023;-66
2023/07/28 00:39:19;;;;;;;11.55;6.40;;;;;;;;;;6054097;23;20098;-66
2023/07/28 00:41:53;;;;;;;17.15;7.78;;;;;;;;;;6058305;23;20019;-66
2023/07/28 00:44:20;;;;;;;14.48;7.45;;;;;;;;;;6060905;23;20035;-60
2023/07/28 00:46:48;;;;;;;27.02;9.38;;;;;;;;;;6059888;23;20023;-60
2023/07/28 00:49:22;;;;;;;15.38;6.95;;;;;;;;;;6059204;23;20086;-60
2023/07/28 00:51:50;;;;;;;15.48;6.65;;;;;;;;;;6056896;23;20406;-61
2023/07/28 00:54:24;;;;;;;20.55;7.32;;;;;;;;;;6060016;23;20023;-60
2023/07/28 00:56:52;;;;;;;22.75;8.70;;;;;;;;;;6059540;23;20081;-57
2023/07/28 00:59:19;;;;;;;18.48;7.75;;;;;;;;;;6059229;23;20465;-59
2023/07/28 01:01:53;;;;;;;38.47;8.77;;;;;;;;;;6058751;23;20026;-59
2023/07/28 01:04:20;;;;;;;72.55;9.55;;;;;;;;;;6059462;23;20476;-59
2023/07/28 01:07:01;;;;;;;26.42;6.47;;;;;;;;;;6060102;23;20110;-58
2023/07/28 01:09:40;;;;;;;48.10;6.55;;;;;;;;;;6057332;23;20418;-58
2023/07/28 01:12:28;;;;;;;23.42;6.28;;;;;;;;;;6060510;23;20030;-65
2023/07/28 01:14:55;;;;;;;22.85;8.32;;;;;;;;;;6058010;23;20034;-65
2023/07/28 01:17:29;;;;;;;16.25;6.97;;;;;;;;;;6060031;23;20023;-66
2023/07/28 01:19:57;;;;;;;13.63;6.30;;;;;;;;;;6058571;23;20109;-65
2023/07/28 01:22:31;;;;;;;10.43;6.20;;;;;;;;;;6060196;23;20023;-59
2023/07/28 01:25:08;;;;;;;21.15;7.78;;;;;;;;;;6059393;23;20330;-58
2023/07/28 01:27:37;;;;;;;15.38;6.25;;;;;;;;;;6058079;23;20027;-54
2023/07/28 01:30:04;;;;;;;14.05;7.10;;;;;;;;;;6059709;23;20030;-54
2023/07/28 01:32:38;;;;;;;17.05;8.02;;;;;;;;;;6061984;23;20023;-53
2023/07/28 01:35:12;;;;;;;26.45;9.98;;;;;;;;;;6060797;23;20460;-54
2023/07/28 01:37:39;;;;;;;14.25;7.63;;;;;;;;;;6060607;23;20066;-51
2023/07/28 01:40:07;;;;;;;18.55;7.82;;;;;;;;;;6059730;23;20074;-51
2023/07/28 01:42:41;;;;;;;12.35;7.03;;;;;;;;;;6061496;23;20034;-57
2023/07/28 01:45:14;;;;;;;24.52;9.52;;;;;;;;;;6061701;23;20030;-59
2023/07/28 01:47:48;;;;;;;13.63;7.85;;;;;;;;;;6062222;23;20023;-58
2023/07/28 01:50:15;;;;;;;18.92;8.73;;;;;;;;;;6060070;23;20034;-55
2023/07/28 01:52:42;;;;;;;21.75;9.85;;;;;;;;;;6062128;23;20027;-53
2023/07/28 01:55:16;;;;;;;20.15;8.38;;;;;;;;;;6060368;23;20031;-58
2023/07/28 01:57:43;;;;;;;;;;;;;;;;;;6062328;23;20023;-57
2023/07/28 02:00:17;;;;;;;13.65;7.00;;;;;;;;;;6060565;23;19982;-57
2023/07/28 02:02:44;;;;;;;18.00;6.55;;;;;;;;;;6059954;23;20034;-58
2023/07/28 02:05:12;;;;;;;31.67;9.90;;;;;;;;;;6061912;23;20341;-58
2023/07/28 02:07:45;;;;;;;10.32;6.07;;;;;;;;;;6058772;23;20086;-58
2023/07/28 02:10:13;;;;;;;27.48;7.43;;;;;;;;;;6059818;23;20209;-50
2023/07/28 02:12:54;;;;;;;57.78;10.63;;;;;;;;;;6059755;23;20095;-50
2023/07/28 02:15:21;;;;;;;25.27;5.93;;;;;;;;;;6061819;23;20086;-53
2023/07/28 02:17:55;;;;;;;72.25;8.25;;;;;;;;;;6060397;23;20906;-52
2023/07/28 02:20:29;;;;;;;25.10;6.55;;;;;;;;;;6060368;23;20413;-54
2023/07/28 02:22:56;;;;;;;;;;;;;;;;;;6062480;23;20416;-60
2023/07/28 02:25:24;;;;;;;30.02;5.82;;;;;;;;;;6061932;23;19973;-60
2023/07/28 02:27:58;;;;;;;34.63;8.18;;;;;;;;;;6059366;23;20338;-60
2023/07/28 02:30:25;;;;;;;23.15;6.43;;;;;;;;;;6061263;23;20027;-60
2023/07/28 02:32:59;;;;;;;7.63;4.43;;;;;;;;;;6060939;23;20050;-60
2023/07/28 02:35:26;;;;;;;51.75;5.50;;;;;;;;;;6061153;23;20027;-61
2023/07/28 02:37:54;;;;;;;12.18;5.10;;;;;;;;;;6062442;23;20027;-53
2023/07/28 02:40:28;;;;;;;73.30;7.65;;;;;;;;;;6059805;23;20066;-52
2023/07/28 02:42:56;;;;;;;55.25;8.05;;;;;;;;;;6060321;23;20031;-51
2023/07/28 02:45:30;;;;;;;94.47;8.63;;;;;;;;;;6061462;23;20091;-55
2023/07/28 02:47:57;;;;;;;51.33;7.75;;;;;;;;;;6059814;23;20477;-59
2023/07/28 02:50:24;;;;;;;70.32;7.65;;;;;;;;;;6060353;23;20030;-58
2023/07/28 02:52:58;;;;;;;122.38;9.90;;;;;;;;;;6060029;23;20027;-73
2023/07/28 02:55:25;;;;;;;109.45;12.07;;;;;;;;;;6060885;23;20070;-73
2023/07/28 02:57:52;;;;;;;46.78;9.40;;;;;;;;;;6059955;23;20023;-73
2023/07/28 03:00:26;;;;;;;121.22;11.45;;;;;;;;;;6060110;23;20026;-73
2023/07/28 03:02:53;;;;;;;81.82;10.68;;;;;;;;;;6060628;23;20023;-73
2023/07/28 03:05:27;;;;;;;111.57;10.38;;;;;;;;;;6059815;23;20023;-73
2023/07/28 03:07:54;;;;;;;128.52;11.60;;;;;;;;;;6059577;23;20548;-52
2023/07/28 03:10:22;;;;;;;37.45;8.48;;;;;;;;;;6060638;23;20034;-53
2023/07/28 03:13:08;;;;;;;235.18;13.65;;;;;;;;;;6059449;23;20085;-52
2023/07/28 03:15:42;;;;;;;323.65;19.17;;;;;;;;;;6060233;23;20026;-54
2023/07/28 03:18:16;;;;;;;166.50;12.52;;;;;;;;;;6060607;23;20029;-58
2023/07/28 03:20:43;;;;;;;241.43;15.75;;;;;;;;;;6059909;23;20504;-57
2023/07/28 03:23:11;;;;;;;273.05;15.02;;;;;;;;;;6060860;23;20116;-57
2023/07/28 03:25:45;;;;;;;99.85;11.65;;;;;;;;;;6060575;23;20018;-58
2023/07/28 03:28:12;;;;;;;92.65;10.18;;;;;;;;;;6060409;23;20031;-58
2023/07/28 03:30:46;;;;;;;73.25;8.32;;;;;;;;;;6060701;23;20031;-58
2023/07/28 03:33:13;;;;;;;55.05;8.00;;;;;;;;;;6059601;23;20098;-58
2023/07/28 03:35:41;;;;;;;48.15;6.78;;;;;;;;;;6060429;23;20102;-67
2023/07/28 03:38:15;;;;;;;33.17;7.38;;;;;;;;;;6060125;23;20023;-66
2023/07/28 03:40:43;;;;;;;39.05;8.60;;;;;;;;;;6060489;23;20027;-67
2023/07/28 03:43:24;;;;;;;19.00;6.28;;;;;;;;;;6059622;23;20022;-67
2023/07/28 03:45:51;;;;;;;30.25;6.03;;;;;;;;;;6057458;23;20402;-58
2023/07/28 03:48:25;;;;;;;30.70;6.10;;;;;;;;;;6059031;23;20141;-67
2023/07/28 03:50:52;;;;;;;55.25;6.90;;;;;;;;;;6059500;23;20086;-67
2023/07/28 03:53:19;;;;;;;29.70;5.90;;;;;;;;;;6060168;23;20027;-67
2023/07/28 03:55:57;;;;;;;25.83;6.75;;;;;;;;;;6058831;23;20023;-68
2023/07/28 03:58:28;;;;;;;35.63;6.28;;;;;;;;;;6060141;23;20130;-67
2023/07/28 04:01:02;;;;;;;27.27;6.32;;;;;;;;;;6059638;23;20031;-67
2023/07/28 04:03:30;;;;;;;70.32;7.55;;;;;;;;;;6055196;23;20090;-52
2023/07/28 04:06:42;;;;;;;28.45;7.65;;;;;;;;;;6059905;23;20026;-52
2023/07/28 04:09:36;;;;;;;67.93;8.27;;;;;;;;;;6060339;23;20026;-56
2023/07/28 04:12:37;;;;;;;67.78;6.22;;;;;;;;;;6058271;23;20035;-55
2023/07/28 04:15:24;;;;;;;24.70;6.85;;;;;;;;;;6059909;23;20505;-54
2023/07/28 04:18:18;;;;;;;43.58;6.10;;;;;;;;;;6059866;23;20615;-57
2023/07/28 04:21:05;;;;;;;29.17;5.15;;;;;;;;;;6060146;23;20027;-58
2023/07/28 04:23:59;;;;;;;33.88;5.50;;;;;;;;;;6060241;23;20026;-58
2023/07/28 04:26:48;;;;;;;40.42;5.65;;;;;;;;;;6059528;23;20406;-58
2023/07/28 04:29:40;;;;;;;25.65;5.38;;;;;;;;;;6060041;23;20027;-58
2023/07/28 04:32:27;;;;;;;39.33;6.53;;;;;;;;;;6060421;23;20027;-53
2023/07/28 04:35:21;;;;;;;46.70;6.03;;;;;;;;;;6058633;23;20065;-54
2023/07/28 04:38:08;;;;;;;56.30;6.60;;;;;;;;;;6061045;23;20031;-52
2023/07/28 04:41:02;;;;;;;55.58;7.80;;;;;;;;;;6057707;23;20023;-55
2023/07/28 04:43:49;;;;;;;41.17;5.07;;;;;;;;;;6060634;23;20031;-60
2023/07/28 04:46:43;;;;;;;62.88;7.70;;;;;;;;;;6060244;23;20026;-54
2023/07/28 04:49:30;;;;;;;28.63;5.90;;;;;;;;;;6059857;23;20090;-54
2023/07/28 04:52:24;;;;;;;21.13;5.28;;;;;;;;;;6060806;23;20027;-54
2023/07/28 04:55:11;;;;;;;16.05;3.92;;;;;;;;;;6059729;23;20481;-55
2023/07/28 04:58:05;;;;;;;38.90;4.97;;;;;;;;;;6056369;23;20522;-53
2023/07/28 05:00:53;;;;;;;46.05;5.78;;;;;;;;;;6059825;23;20031;-68
2023/07/28 05:03:46;;;;;;;43.55;6.53;;;;;;;;;;6059590;23;20030;-67
2023/07/28 05:06:33;;;;;;;48.28;6.90;;;;;;;;;;6058832;23;20469;-67
2023/07/28 05:09:28;;;;;;;29.15;4.90;;;;;;;;;;6061352;23;20085;-68
2023/07/28 05:12:21;;;;;;;11.93;4.80;;;;;;;;;;6061567;23;20421;-65
2023/07/28 05:15:23;;;;;;;9.65;4.93;;;;;;;;;;6061038;23;20026;-55
2023/07/28 05:18:15;;;;;;;14.80;4.40;;;;;;;;;;6060760;23;20074;-53
2023/07/28 05:21:09;;;;;;;11.77;4.97;;;;;;;;;;6061423;23;20027;-55
2023/07/28 05:24:03;;;;;;;5.78;4.78;;;;;;;;;;6061549;23;20023;-53
2023/07/28 05:26:51;;;;;;;6.68;4.75;;;;;;;;;;6061258;23;20316;-51
2023/07/28 05:29:44;;;;;;;6.32;4.38;;;;;;;;;;6060635;23;20023;-52
2023/07/28 05:32:32;;;;;;;8.88;4.60;;;;;;;;;;6060937;23;20026;-52
2023/07/28 05:35:25;;;;;;;13.02;5.13;;;;;;;;;;6061849;23;20037;-53
2023/07/28 05:38:19;;;;;;;6.63;4.70;;;;;;;;;;6059766;23;20095;-55
2023/07/28 05:41:07;;;;;;;5.88;4.88;;;;;;;;;;6061616;23;20082;-58
2023/07/28 05:44:00;;;;;;;6.72;5.03;;;;;;;;;;6062004;23;20030;-77
2023/07/28 05:46:48;;;;;;;8.07;4.90;;;;;;;;;;6059972;23;20026;-77
2023/07/28 05:49:42;;;;;;;7.07;4.60;;;;;;;;;;6061616;23;20023;-77
2023/07/28 05:52:36;;;;;;;5.43;3.60;;;;;;;;;;6060710;23;20472;-77
2023/07/28 05:55:29;;;;;;;4.85;4.18;;;;;;;;;;6061587;23;20082;-77
2023/07/28 05:58:16;;;;;;;6.50;4.80;;;;;;;;;;6062241;23;20141;-60
2023/07/28 06:01:10;;;;;;;5.32;4.80;;;;;;;;;;6061006;23;20082;-60
2023/07/28 06:03:59;;;;;;;6.50;4.95;;;;;;;;;;6059560;23;20330;-61
2023/07/28 06:06:51;;;;;;;7.93;4.88;;;;;;;;;;6060008;23;20030;-52
2023/07/28 06:09:45;;;;;;;7.25;4.97;;;;;;;;;;6059575;23;20051;-67
2023/07/28 06:12:46;;;;;;;7.25;4.40;;;;;;;;;;6061030;23;20033;-67
2023/07/28 06:15:40;;;;;;;8.43;4.25;;;;;;;;;;6060425;23;20094;-67
2023/07/28 06:18:34;;;;;;;10.43;4.07;;;;;;;;;;6061340;23;20023;-66
2023/07/28 06:21:21;;;;;;;9.05;4.70;;;;;;;;;;6061964;23;20019;-67
2023/07/28 06:24:15;;;;;;;7.50;5.10;;;;;;;;;;6059371;23;20030;-66
2023/07/28 06:27:10;;;;;;;6.20;4.22;;;;;;;;;;6060977;23;20027;-55
2023/07/28 06:30:03;;;;;;;8.65;4.47;;;;;;;;;;6061417;23;20030;-56
2023/07/28 06:32:50;;;;;;;8.48;4.03;;;;;;;;;;6057681;23;20027;-54
2023/07/28 06:35:44;;;;;;;8.10;4.15;;;;;;;;;;6056847;23;20022;-59
2023/07/28 06:38:32;;;;;;;7.68;3.70;;;;;;;;;;6060910;23;20129;-67
2023/07/28 06:41:25;;;;;;;3.92;3.53;;;;;;;;;;6060573;23;20027;-67
2023/07/28 06:44:19;;;;;;;5.05;4.15;;;;;;;;;;6057360;23;20038;-67
2023/07/28 06:47:07;;;;;;;7.38;4.18;;;;;;;;;;6059015;23;20026;-66
2023/07/28 06:50:00;;;;;;;7.57;3.78;;;;;;;;;;6059074;23;20026;-66
2023/07/28 06:52:48;;;;;;;6.75;3.75;;;;;;;;;;6058028;23;20027;-67
2023/07/28 06:55:43;;;;;;;7.13;3.83;;;;;;;;;;6060458;23;20404;-57
2023/07/28 06:58:37;;;;;;;10.30;4.82;;;;;;;;;;6060272;23;20351;-55
2023/07/28 07:01:41;;;;;;;6.90;3.92;;;;;;;;;;6057339;23;20185;-55
2023/07/28 07:04:35;;;;;;;7.82;4.00;;;;;;;;;;6060399;23;20118;-58
2023/07/28 07:07:22;;;;;;;4.65;3.05;;;;;;;;;;6060336;23;20090;-66
2023/07/28 07:10:16;;;;;;;7.03;3.10;;;;;;;;;;6061631;23;20026;-66
2023/07/28 07:13:11;;;;;;;4.80;2.92;;;;;;;;;;6058798;23;20027;-66
2023/07/28 07:16:05;;;;;;;5.07;2.40;;;;;;;;;;6059241;23;20023;-66
2023/07/28 07:18:52;;;;;;;3.60;2.40;;;;;;;;;;6061368;23;20385;-66
2023/07/28 07:21:47;;;;;;;7.68;2.63;;;;;;;;;;6060255;23;20667;-65
2023/07/28 07:24:33;;;;;;;5.82;2.33;;;;;;;;;;6060803;23;20023;-71
2023/07/28 07:27:27;;;;;;;3.10;2.33;;;;;;;;;;6061315;23;20023;-71
2023/07/28 07:30:14;;;;;;;4.13;2.30;;;;;;;;;;6060691;23;20386;-70
2023/07/28 07:33:08;;;;;;;4.30;2.17;;;;;;;;;;6058906;23;20026;-70
2023/07/28 07:36:03;;;;;;;7.35;2.83;;;;;;;;;;6060655;23;20027;-54
2023/07/28 07:38:49;;;;;;;4.60;2.20;;;;;;;;;;6061612;23;20027;-51
2023/07/28 07:41:43;;;;;;;3.95;2.10;;;;;;;;;;6060581;23;20074;-50
2023/07/28 07:44:30;;;;;;;6.32;2.40;;;;;;;;;;6061177;23;20031;-54
2023/07/28 07:47:24;;;;;;;7.13;2.13;;;;;;;;;;6061816;23;20029;-54
2023/07/28 07:50:24;;;;;;;3.60;2.10;;;;;;;;;;6060920;23;20022;-54
2023/07/28 07:53:11;;;;;;;5.40;2.35;;;;;;;;;;6060010;23;20023;-56
2023/07/28 07:56:05;;;;;;;3.38;1.90;;;;;;;;;;6061961;23;20508;-52
2023/07/28 07:58:53;;;;;;;3.70;2.00;;;;;;;;;;6060601;23;20023;-55
2023/07/28 08:01:46;;;;;;;4.10;2.10;;;;;;;;;;6059573;23;20027;-59
2023/07/28 08:04:33;;;;;;;4.22;2.13;;;;;;;;;;6061236;23;20469;-55
2023/07/28 08:07:27;;;;;;;5.07;2.35;;;;;;;;;;6061598;23;20027;-56
2023/07/28 08:10:14;;;;;;;3.40;1.92;;;;;;;;;;6060561;23;20557;-54
2023/07/28 08:13:22;;;;;;;3.65;1.80;;;;;;;;;;6060427;23;20019;-55
2023/07/28 08:16:16;;;;;;;4.45;1.85;;;;;;;;;;6059931;23;20082;-54
2023/07/28 08:19:10;;;;;;;3.55;1.80;;;;;;;;;;6061866;23;20101;-54
2023/07/28 08:21:58;;;;;;;3.38;1.40;;;;;;;;;;6060425;23;20029;-53
2023/07/28 08:24:52;;;;;;;2.95;1.80;;;;;;;;;;6061031;23;20058;-51
2023/07/28 08:27:39;;;;;;;2.72;1.58;;;;;;;;;;6060654;23;20386;-54
2023/07/28 08:30:33;;;;;;;2.70;1.38;;;;;;;;;;6061116;23;20547;-63
2023/07/28 08:33:20;;;;;;;2.47;1.35;;;;;;;;;;6060515;23;20027;-69
2023/07/28 08:36:36;;;;;;;6.63;1.50;;;;;;;;;;6060902;23;20058;-70
2023/07/28 08:39:30;;;;;;;1.55;1.20;;;;;;;;;;6060142;23;20023;-70
2023/07/28 08:42:24;;;;;;;1.90;1.23;;;;;;;;;;6056783;23;20030;-69
2023/07/28 08:45:13;;;;;;;2.50;1.60;;;;;;;;;;6061246;23;20035;-68
2023/07/28 08:48:05;;;;;;;5.45;1.30;;;;;;;;;;6063080;23;20027;-56
2023/07/28 08:50:54;;;;;;;8.30;1.40;;;;;;;;;;6060982;23;20105;-53
2023/07/28 08:53:47;;;;;;;3.15;1.42;;;;;;;;;;6061768;23;20027;-54
2023/07/28 08:56:35;;;;;;;6.72;1.58;;;;;;;;;;6061667;23;20472;-57
2023/07/28 08:59:29;;;;;;;3.60;1.42;;;;;;;;;;6059988;23;20468;-68
2023/07/28 09:02:17;;;;;;;4.82;1.95;;;;;;;;;;6061095;23;20078;-64
2023/07/28 09:05:18;;;;;;;1.60;1.00;;;;;;;;;;6062728;23;20413;-64
2023/07/28 09:08:04;;;;;;;1.23;0.88;;;;;;;;;;6059839;23;20434;-64
2023/07/28 09:11:02;;;;;;;1.77;1.02;;;;;;;;;;6059979;23;20496;-64
2023/07/28 09:14:00;;;;;;;3.38;1.40;;;;;;;;;;6061214;23;20031;-64
2023/07/28 09:16:54;;;;;;;1.88;1.30;;;;;;;;;;6060450;23;20031;-58
2023/07/28 09:19:51;;;;;;;2.47;1.42;;;;;;;;;;6060808;23;20026;-59
2023/07/28 09:22:46;;;;;;;2.38;1.40;;;;;;;;;;6061265;23;20034;-59
2023/07/28 09:25:33;;;;;;;2.75;1.23;;;;;;;;;;6062434;23;20034;-59
2023/07/28 09:28:39;;;;;;;3.28;1.02;;;;;;;;;;6060136;23;20026;-52
2023/07/28 09:31:32;;;;;;;2.30;1.10;;;;;;;;;;6061410;23;20023;-59
2023/07/28 09:34:27;;;;;;;3.80;1.30;;;;;;;;;;6061402;23;20027;-58
2023/07/28 09:37:21;;;;;;;1.55;1.25;;;;;;;;;;6060444;23;20023;-59
2023/07/28 09:40:11;;;;;;;1.80;1.17;;;;;;;;;;6061632;23;20078;-59
2023/07/28 09:43:03;;;;;;;1.50;1.13;;;;;;;;;;6062401;23;20022;-59
2023/07/28 09:45:51;;;;;;;2.97;1.30;;;;;;;;;;6060305;23;20033;-60
2023/07/28 09:48:45;;;;;;;3.25;1.10;;;;;;;;;;6060506;23;20030;-60
2023/07/28 09:51:34;;;;;;;3.67;1.02;;;;;;;;;;6060851;23;20027;-60
2023/07/28 09:54:29;;;;;;;1.15;1.00;;;;;;;;;;6060572;23;20023;-54
2023/07/28 09:56:57;;;;;;;1.50;1.10;;;;;;;;;;6061327;23;20057;-59
2023/07/28 09:59:29;;;;;;;1.63;1.10;;;;;;;;;;6060463;23;20415;-55
2023/07/28 10:02:03;;;;;;;1.08;0.95;;;;;;;;;;6060324;23;20110;-51
2023/07/28 10:04:31;;;;;;;5.07;1.20;;;;;;;;;;6061659;23;20093;-53
2023/07/28 10:06:59;;;;;;;2.22;1.05;;;;;;;;;;6060471;23;20027;-52
2023/07/28 10:09:34;;;;;;;2.85;1.25;;;;;;;;;;6059920;23;20027;-54
2023/07/28 10:12:03;;;;;;;5.53;1.58;;;;;;;;;;6060743;23;20023;-53
2023/07/28 10:14:44;;;;;;;1.63;1.30;;;;;;;;;;6032083;23;20092;-55
2023/07/28 10:17:16;;;;;;;2.65;1.20;;;;;;;;;;6031099;23;20023;-55
2023/07/28 10:19:50;;;;;;;2.42;0.90;;;;;;;;;;6031129;23;20023;-54
2023/07/28 10:22:27;;;;;;;2.88;0.90;;;;;;;;;;6028604;23;20475;-53
2023/07/28 10:24:55;;;;;;;2.42;1.00;;;;;;;;;;6033753;23;20154;-55
2023/07/28 10:27:48;;;;;;;1.40;1.05;;;;;;;;;;6030055;23;20027;-62
2023/07/28 10:30:22;;;;;;;1.13;0.82;;;;;;;;;;6031066;23;20079;-63
2023/07/28 10:32:50;;;;;;;1.75;1.20;;;;;;;;;;6031157;23;20075;-62
2023/07/28 10:35:48;;;;;;;2.00;0.93;;;;;;;;;;6030685;23;20031;-63
2023/07/28 10:38:36;;;;;;;3.45;1.20;;;;;;;;;;6030254;23;20027;-64
2023/07/28 10:41:30;;;;;;;3.55;1.10;;;;;;;;;;6031185;23;20350;-60
2023/07/28 10:44:16;;;;;;;2.22;1.00;;;;;;;;;;6029622;23;20371;-60
2023/07/28 10:47:12;;;;;;;2.83;1.10;;;;;;;;;;6031737;23;20027;-61
2023/07/28 10:50:02;;;;;;;1.08;1.00;;;;;;;;;;6029412;23;20027;-60
2023/07/28 10:52:57;;;;;;;4.28;1.77;;;;;;;;;;6031728;23;20390;-51
2023/07/28 10:55:44;;;;;;;2.35;1.33;;;;;;;;;;6032527;23;20365;-59
2023/07/28 10:58:38;;;;;;;6.43;1.48;;;;;;;;;;6029774;23;20027;-59
2023/07/28 11:01:33;;;;;;;3.70;1.63;;;;;;;;;;6032314;23;20086;-59
2023/07/28 11:04:25;;;;;;;3.67;1.38;;;;;;;;;;6031728;23;20402;-59
2023/07/28 11:07:20;;;;;;;2.90;1.42;;;;;;;;;;6031498;23;20548;-59
2023/07/28 11:10:15;;;;;;;2.13;0.90;;;;;;;;;;6030869;23;20028;-59
2023/07/28 11:13:08;;;;;;;4.15;1.52;;;;;;;;;;6041815;23;20090;-59
2023/07/28 11:16:14;;;;;;;4.15;1.40;;;;;;;;;;6059544;23;20033;-59
2023/07/28 11:19:09;;;;;;;3.85;1.20;;;;;;;;;;6060009;23;20057;-59
2023/07/28 11:21:44;;;;;;;2.10;1.05;;;;;;;;;;6058302;23;20030;-62
2023/07/28 11:24:31;;;;;;;3.00;1.30;;;;;;;;;;6060198;23;20394;-53
2023/07/28 11:27:25;;;;;;;2.15;1.33;;;;;;;;;;6060596;23;20319;-51
2023/07/28 11:30:13;;;;;;;2.33;1.20;;;;;;;;;;6059819;23;20029;-52
2023/07/28 11:33:10;;;;;;;3.03;1.08;;;;;;;;;;6059031;23;20019;-52
2023/07/28 11:35:56;;;;;;;3.40;1.35;;;;;;;;;;6057946;23;20082;-51
2023/07/28 11:38:51;;;;;;;1.27;1.00;;;;;;;;;;6053737;23;20073;-54
2023/07/28 11:41:39;;;;;;;1.77;1.07;;;;;;;;;;6059639;23;20019;-60
2023/07/28 11:44:32;;;;;;;1.65;1.08;;;;;;;;;;6058688;23;20023;-59
2023/07/28 11:47:20;;;;;;;2.05;1.30;;;;;;;;;;6059322;23;20027;-60
2023/07/28 11:50:22;;;;;;;1.50;1.20;;;;;;;;;;6059194;23;20473;-59
2023/07/28 11:53:10;;;;;;;3.72;1.45;;;;;;;;;;6059123;23;20102;-60
2023/07/28 11:56:04;;;;;;;3.20;1.40;;;;;;;;;;6059567;23;20026;-60
2023/07/28 11:58:52;;;;;;;2.42;1.50;;;;;;;;;;6060236;23;20027;-54
2023/07/28 12:01:53;;;;;;;2.97;1.70;;;;;;;;;;6059102;23;20350;-68
2023/07/28 12:04:43;;;;;;;1.48;1.33;;;;;;;;;;6063316;23;20027;-68
2023/07/28 12:07:36;;;;;;;1.63;1.20;;;;;;;;;;6057000;23;20044;-68
2023/07/28 12:10:24;;;;;;;1.42;1.33;;;;;;;;;;6060603;23;20023;-68
2023/07/28 12:13:50;;;;;;;3.08;1.50;;;;;;;;;;6059875;23;20105;-69
2023/07/28 12:16:41;;;;;;;4.35;1.63;;;;;;;;;;6064389;23;20026;-62
2023/07/28 12:20:01;;;;;;;5.55;1.92;;;;;;;;;;6063012;23;20086;-62
2023/07/28 12:22:55;;;;;;;6.15;2.22;;;;;;;;;;6059998;23;20086;-61
2023/07/28 12:25:55;;;;;;;9.25;2.35;;;;;;;;;;6063646;23;20071;-55
2023/07/28 12:28:46;;;;;;;3.28;1.70;;;;;;;;;;6059413;23;20031;-64
2023/07/28 12:31:37;;;;;;;9.40;1.95;;;;;;;;;;6060747;23;20473;-64
2023/07/28 12:34:31;;;;;;;2.05;1.52;;;;;;;;;;6060757;23;20026;-64
2023/07/28 12:37:19;;;;;;;2.97;1.83;;;;;;;;;;6057349;23;20114;-63
2023/07/28 12:40:16;;;;;;;3.55;1.80;;;;;;;;;;6059626;23;20031;-64
2023/07/28 12:43:06;;;;;;;5.25;1.95;;;;;;;;;;6061552;23;20027;-64
2023/07/28 12:46:03;;;;;;;3.53;2.08;;;;;;;;;;6058371;23;20034;-65
2023/07/28 12:48:50;;;;;;;8.75;2.45;;;;;;;;;;6059284;23;20030;-70
2023/07/28 12:51:47;;;;;;;4.18;2.22;;;;;;;;;;6058999;23;20082;-67
2023/07/28 12:54:45;;;;;;;6.40;3.13;;;;;;;;;;6060605;23;20082;-69
2023/07/28 12:57:42;;;;;;;8.95;2.88;;;;;;;;;;6059409;23;20475;-69
2023/07/28 13:00:29;;;;;;;4.75;2.83;;;;;;;;;;6059368;23;20083;-69
2023/07/28 13:03:25;;;;;;;3.85;2.78;;;;;;;;;;6062984;23;20576;-59
2023/07/28 13:06:12;;;;;;;6.75;2.60;;;;;;;;;;6060236;23;20030;-59
2023/07/28 13:09:06;;;;;;;3.78;2.45;;;;;;;;;;6059984;23;20030;-60
2023/07/28 13:11:56;;;;;;;5.63;3.00;;;;;;;;;;6060695;23;20421;-71
2023/07/28 13:15:00;;;;;;;5.85;2.72;;;;;;;;;;6062263;23;20410;-61
2023/07/28 13:17:48;;;;;;;3.60;2.88;;;;;;;;;;6059253;23;20043;-61
2023/07/28 13:20:41;;;;;;;7.22;3.20;;;;;;;;;;6059383;23;20022;-61
2023/07/28 13:23:29;;;;;;;4.10;2.80;;;;;;;;;;6058046;23;20086;-61
2023/07/28 13:26:22;;;;;;;11.02;3.65;;;;;;;;;;6060154;23;20465;-61
2023/07/28 13:29:09;;;;;;;11.85;3.10;;;;;;;;;;6061393;23;20090;-61
2023/07/28 13:32:03;;;;;;;4.35;3.10;;;;;;;;;;6061963;23;20023;-59
2023/07/28 13:34:52;;;;;;;4.72;2.72;;;;;;;;;;6061542;23;20380;-59
2023/07/28 13:37:44;;;;;;;4.93;2.60;;;;;;;;;;6061365;23;20027;-59
2023/07/28 13:40:31;;;;;;;3.97;2.65;;;;;;;;;;6060644;23;20357;-61
2023/07/28 13:43:25;;;;;;;6.68;2.97;;;;;;;;;;6059837;23;20074;-62
2023/07/28 13:46:12;;;;;;;5.05;2.50;;;;;;;;;;6060718;23;20026;-59
2023/07/28 13:49:06;;;;;;;7.10;2.97;;;;;;;;;;6060524;23;20393;-59
2023/07/28 13:51:53;;;;;;;3.20;2.67;;;;;;;;;;6059588;23;20038;-59
2023/07/28 13:54:49;;;;;;;3.25;2.70;;;;;;;;;;6058828;23;20023;-59
2023/07/28 13:57:39;;;;;;;4.57;2.63;;;;;;;;;;6060692;23;20033;-59
2023/07/28 14:00:33;;;;;;;5.13;2.80;;;;;;;;;;6062448;23;20354;-60
2023/07/28 14:03:21;;;;;;;3.40;2.58;;;;;;;;;;6059886;23;20425;-58
2023/07/28 14:06:14;;;;;;;3.95;2.33;;;;;;;;;;6061269;23;20030;-58
2023/07/28 14:09:01;;;;;;;3.08;1.90;;;;;;;;;;6059566;23;20026;-59
2023/07/28 14:11:55;;;;;;;5.68;1.85;;;;;;;;;;6061366;23;20034;-58
2023/07/28 14:15:01;;;;;;;4.75;2.55;;;;;;;;;;6060483;23;20477;-58
2023/07/28 14:17:55;;;;;;;4.35;2.10;;;;;;;;;;6058916;23;20032;-59
2023/07/28 14:20:42;;;;;;;2.58;2.10;;;;;;;;;;6061524;23;20086;-59
2023/07/28 14:23:43;;;;;;;2.95;1.95;;;;;;;;;;6059006;23;20030;-58
2023/07/28 14:26:31;;;;;;;3.35;2.00;;;;;;;;;;6060926;23;20174;-59
2023/07/28 14:29:26;;;;;;;5.45;2.00;;;;;;;;;;6055601;23;20062;-54
2023/07/28 14:32:12;;;;;;;2.45;1.80;;;;;;;;;;6060457;23;20053;-55
2023/07/28 14:35:06;;;;;;;4.53;1.70;;;;;;;;;;6058909;23;20054;-52
2023/07/28 14:37:54;;;;;;;4.28;2.00;;;;;;;;;;6059189;23;20026;-77
2023/07/28 14:40:48;;;;;;;2.40;1.55;;;;;;;;;;6061656;23;20078;-62
2023/07/28 14:43:41;;;;;;;3.88;1.90;;;;;;;;;;6058439;23;20428;-61
2023/07/28 14:46:35;;;;;;;3.08;1.90;;;;;;;;;;6059159;23;20035;-61
2023/07/28 14:49:27;;;;;;;2.97;2.20;;;;;;;;;;6061134;23;20467;-61
2023/07/28 14:52:17;;;;;;;2.35;2.00;;;;;;;;;;6059508;23;20377;-61
2023/07/28 14:55:05;;;;;;;3.05;1.88;;;;;;;;;;6060657;23;20026;-61
2023/07/28 14:57:58;;;;;;;2.38;1.90;;;;;;;;;;6057283;23;20106;-59
2023/07/28 15:00:45;;;;;;;4.90;2.10;;;;;;;;;;6059478;23;20525;-59
2023/07/28 15:03:42;;;;;;;4.43;2.20;;;;;;;;;;6059733;23;20054;-59
2023/07/28 15:06:31;;;;;;;4.93;2.03;;;;;;;;;;6059210;23;20081;-66
2023/07/28 15:09:25;;;;;;;1.85;1.73;;;;;;;;;;6060149;23;20022;-73
2023/07/28 15:12:13;;;;;;;5.22;1.95;;;;;;;;;;6061124;23;20461;-73
2023/07/28 15:15:13;;;;;;;3.50;2.10;;;;;;;;;;6059677;23;20019;-73
2023/07/28 15:18:00;;;;;;;3.72;2.17;;;;;;;;;;6059058;23;20083;-73
2023/07/28 15:20:55;;;;;;;3.45;2.05;;;;;;;;;;6060418;23;20091;-73
2023/07/28 15:23:41;;;;;;;2.47;1.90;;;;;;;;;;6058493;23;20019;-73
2023/07/28 15:26:35;;;;;;;4.50;2.00;;;;;;;;;;6060545;23;20037;-61
2023/07/28 15:29:22;;;;;;;2.78;1.90;;;;;;;;;;6060503;23;20078;-61
2023/07/28 15:32:16;;;;;;;2.58;1.98;;;;;;;;;;6060110;23;20023;-61
2023/07/28 15:35:11;;;;;;;6.45;1.83;;;;;;;;;;6060150;23;20058;-56
2023/07/28 15:38:04;;;;;;;2.90;1.88;;;;;;;;;;6059800;23;20414;-54
2023/07/28 15:40:58;;;;;;;5.00;1.90;;;;;;;;;;6060891;23;20027;-54
2023/07/28 15:43:46;;;;;;;7.13;1.50;;;;;;;;;;6059185;23;20034;-53
2023/07/28 15:46:39;;;;;;;1.65;1.35;;;;;;;;;;6059072;23;20037;-55
2023/07/28 15:49:27;;;;;;;1.92;1.40;;;;;;;;;;6059452;23;20066;-52
2023/07/28 15:52:01;;;;;;;4.45;1.23;;;;;;;;;;6060549;23;20616;-54
2023/07/28 15:54:28;;;;;;;5.43;1.00;;;;;;;;;;6059956;23;20086;-63
2023/07/28 15:56:55;;;;;;;4.10;0.98;;;;;;;;;;6058555;23;20039;-62
2023/07/28 15:59:30;;;;;;;6.45;1.23;;;;;;;;;;6058061;23;20026;-63
2023/07/28 16:01:57;;;;;;;1.75;0.90;;;;;;;;;;6057580;23;20023;-63
2023/07/28 16:04:31;;;;;;;5.63;1.50;;;;;;;;;;6056385;23;20098;-58
2023/07/28 16:06:59;;;;;;;;;;;;;;;;;;6060398;23;20033;-54
2023/07/28 16:09:26;;;;;;;4.45;1.38;;;;;;;;;;6058367;23;19926;-54
2023/07/28 16:11:59;;;;;;;1.45;1.08;;;;;;;;;;6058935;23;20034;-51
2023/07/28 16:14:27;;;;;;;5.07;1.75;;;;;;;;;;6059256;23;20030;-52
2023/07/28 16:17:07;;;;;;;6.38;1.90;;;;;;;;;;6059492;23;20023;-53
2023/07/28 16:19:34;;;;;;;2.05;0.90;;;;;;;;;;6058914;23;20579;-53
2023/07/28 16:22:09;;;;;;;1.83;1.10;;;;;;;;;;6060061;23;20063;-61
2023/07/28 16:24:37;;;;;;;1.67;1.10;;;;;;;;;;6058107;23;20035;-60